Time;durP1;ratioP1;P1;durP2;ratioP2;P2;SDS_P1;SDS_P2;PMS_P1;PMS_P2;Temp;Humidity;BMP_temperature;BMP_pressure;BME280_temperature;BME280_humidity;BME280_pressure;Samples;Min_cycle;Max_cycle;Signal;HPM_P1;HPM_P2
2021/01/21 00:00:44;;;;;;;0.65;0.65;;;;;;;;;;5052986;28;20038;-68
2021/01/21 00:03:10;;;;;;;1.45;0.70;;;;;;;;;;5053064;28;20053;-68
2021/01/21 00:05:36;;;;;;;1.13;0.93;;;;;;;;;;5052166;28;20033;-68
2021/01/21 00:08:02;;;;;;;1.63;1.25;;;;;;;;;;5052733;28;20029;-68
2021/01/21 00:10:28;;;;;;;0.80;0.80;;;;;;;;;;5052269;28;20040;-68
2021/01/21 00:12:54;;;;;;;1.83;1.73;;;;;;;;;;5052900;28;20044;-68
2021/01/21 00:15:20;;;;;;;1.27;1.00;;;;;;;;;;5051819;28;20037;-68
2021/01/21 00:17:46;;;;;;;1.33;1.23;;;;;;;;;;5052878;28;20036;-68
2021/01/21 00:20:13;;;;;;;1.83;1.10;;;;;;;;;;5052910;28;20432;-68
2021/01/21 00:22:39;;;;;;;2.38;2.13;;;;;;;;;;5052135;28;20025;-68
2021/01/21 00:25:05;;;;;;;1.88;1.17;;;;;;;;;;5052328;28;20053;-68
2021/01/21 00:27:32;;;;;;;1.50;1.08;;;;;;;;;;5051653;28;20101;-68
2021/01/21 00:29:58;;;;;;;2.13;0.98;;;;;;;;;;5052488;28;20407;-68
2021/01/21 00:32:24;;;;;;;2.60;1.80;;;;;;;;;;5051883;28;20025;-68
2021/01/21 00:34:50;;;;;;;1.52;1.27;;;;;;;;;;5051689;28;20036;-68
2021/01/21 00:37:16;;;;;;;1.35;0.82;;;;;;;;;;5043321;28;20033;-68
2021/01/21 00:39:42;;;;;;;1.38;1.27;;;;;;;;;;5032195;28;20029;-68
2021/01/21 00:42:08;;;;;;;1.33;1.23;;;;;;;;;;5032446;28;20036;-68
2021/01/21 00:44:34;;;;;;;1.33;1.08;;;;;;;;;;5031443;28;20586;-68
2021/01/21 00:47:00;;;;;;;1.10;1.02;;;;;;;;;;5032135;28;20100;-68
2021/01/21 00:49:26;;;;;;;1.15;0.90;;;;;;;;;;5031508;28;20362;-68
2021/01/21 00:51:52;;;;;;;1.67;0.98;;;;;;;;;;5032043;28;20463;-68
2021/01/21 00:54:18;;;;;;;1.15;0.98;;;;;;;;;;5031467;28;20056;-68
2021/01/21 00:56:44;;;;;;;0.80;0.80;;;;;;;;;;5031987;28;20061;-68
2021/01/21 00:59:10;;;;;;;1.00;0.90;;;;;;;;;;5032113;28;20049;-68
2021/01/21 01:01:36;;;;;;;0.82;0.70;;;;;;;;;;5031142;28;20054;-68
2021/01/21 01:04:03;;;;;;;0.90;0.73;;;;;;;;;;5031713;28;20128;-68
2021/01/21 01:06:29;;;;;;;1.45;1.15;;;;;;;;;;5030549;28;20423;-68
2021/01/21 01:08:55;;;;;;;0.50;0.40;;;;;;;;;;5031955;28;20037;-68
2021/01/21 01:11:21;;;;;;;0.75;0.60;;;;;;;;;;5031092;28;20037;-68
2021/01/21 01:13:47;;;;;;;1.17;1.10;;;;;;;;;;5014140;28;20029;-68
2021/01/21 01:16:13;;;;;;;0.52;0.52;;;;;;;;;;5031462;28;20593;-68
2021/01/21 01:18:39;;;;;;;1.02;0.60;;;;;;;;;;5031118;28;20438;-68
2021/01/21 01:21:05;;;;;;;1.27;0.85;;;;;;;;;;5040115;28;20024;-68
2021/01/21 01:23:31;;;;;;;0.50;0.50;;;;;;;;;;5050762;28;20056;-68
2021/01/21 01:25:58;;;;;;;0.65;0.63;;;;;;;;;;5051296;28;20025;-68
2021/01/21 01:28:24;;;;;;;1.10;0.80;;;;;;;;;;5050703;28;20033;-68
2021/01/21 01:30:50;;;;;;;0.73;0.60;;;;;;;;;;5051303;28;20074;-68
2021/01/21 01:33:16;;;;;;;0.90;0.88;;;;;;;;;;5050769;28;20534;-68
2021/01/21 01:35:42;;;;;;;1.17;0.93;;;;;;;;;;5050817;28;20037;-68
2021/01/21 01:38:09;;;;;;;0.70;0.70;;;;;;;;;;5051140;28;20113;-68
2021/01/21 01:40:35;;;;;;;0.50;0.50;;;;;;;;;;5050450;28;20032;-68
2021/01/21 01:43:01;;;;;;;0.73;0.50;;;;;;;;;;5051217;28;20458;-68
2021/01/21 01:45:27;;;;;;;0.60;0.50;;;;;;;;;;5049496;28;20112;-68
2021/01/21 01:47:53;;;;;;;0.73;0.73;;;;;;;;;;5050591;28;20035;-68
2021/01/21 01:50:19;;;;;;;1.80;0.38;;;;;;;;;;5050620;28;20414;-68
2021/01/21 01:52:45;;;;;;;0.70;0.40;;;;;;;;;;5042759;28;20030;-68
2021/01/21 01:55:12;;;;;;;0.70;0.70;;;;;;;;;;5030583;28;20029;-68
2021/01/21 01:57:39;;;;;;;0.50;0.40;;;;;;;;;;5030231;28;20503;-68
2021/01/21 02:00:05;;;;;;;0.93;0.85;;;;;;;;;;5031031;28;20144;-68
2021/01/21 02:02:32;;;;;;;0.70;0.70;;;;;;;;;;5029585;28;20052;-68
2021/01/21 02:04:59;;;;;;;1.10;0.93;;;;;;;;;;5030671;28;20025;-68
2021/01/21 02:07:25;;;;;;;1.85;1.23;;;;;;;;;;5029943;28;20032;-68
2021/01/21 02:09:52;;;;;;;0.63;0.35;;;;;;;;;;5030769;28;20037;-68
2021/01/21 02:12:36;;;;;;;0.68;0.68;;;;;;;;;;5030376;28;20032;-68
2021/01/21 02:15:06;;;;;;;0.70;0.43;;;;;;;;;;5030490;28;20033;-68
2021/01/21 02:17:35;;;;;;;0.73;0.40;;;;;;;;;;5029547;28;20091;-68
2021/01/21 02:20:17;;;;;;;0.65;0.65;;;;;;;;;;5030662;28;20107;-68
2021/01/21 02:22:52;;;;;;;0.93;0.63;;;;;;;;;;5030445;28;20457;-68
2021/01/21 02:25:18;;;;;;;0.30;0.30;;;;;;;;;;5029361;28;20025;-68
2021/01/21 02:27:47;;;;;;;0.68;0.50;;;;;;;;;;5030497;28;20036;-68
2021/01/21 02:30:36;;;;;;;0.60;0.60;;;;;;;;;;5030186;28;20040;-68
2021/01/21 02:33:21;;;;;;;0.73;0.65;;;;;;;;;;4993534;28;20084;-68
2021/01/21 02:35:49;;;;;;;0.60;0.55;;;;;;;;;;5029918;28;20026;-68
2021/01/21 02:38:15;;;;;;;0.32;0.20;;;;;;;;;;5046053;28;20394;-68
2021/01/21 02:40:43;;;;;;;0.85;0.63;;;;;;;;;;5049976;28;20040;-68
2021/01/21 02:43:12;;;;;;;0.52;0.28;;;;;;;;;;5050325;28;20467;-68
2021/01/21 02:45:38;;;;;;;0.77;0.50;;;;;;;;;;5049051;28;20037;-68
2021/01/21 02:48:04;;;;;;;0.40;0.40;;;;;;;;;;5049942;28;20028;-68
2021/01/21 02:50:30;;;;;;;0.75;0.55;;;;;;;;;;5049473;28;20680;-68
2021/01/21 02:52:59;;;;;;;2.08;0.77;;;;;;;;;;5049947;28;20621;-68
2021/01/21 02:55:34;;;;;;;0.30;0.28;;;;;;;;;;5048815;28;20029;-68
2021/01/21 02:58:14;;;;;;;0.40;0.40;;;;;;;;;;5052365;28;20078;-68
2021/01/21 03:00:40;;;;;;;0.80;0.63;;;;;;;;;;5053383;28;20362;-68
2021/01/21 03:03:14;;;;;;;0.50;0.32;;;;;;;;;;5054338;28;20120;-68
2021/01/21 03:05:40;;;;;;;;;;;;;;;;;;5053617;28;20155;-68
2021/01/21 03:08:07;;;;;;;0.55;0.55;;;;;;;;;;5053608;28;19905;-68
2021/01/21 03:10:33;;;;;;;0.55;0.45;;;;;;;;;;5053437;28;20041;-68
2021/01/21 03:12:59;;;;;;;0.28;0.28;;;;;;;;;;5053773;28;20031;-68
2021/01/21 03:15:26;;;;;;;0.45;0.40;;;;;;;;;;5052786;28;20025;-68
2021/01/21 03:17:53;;;;;;;1.15;0.20;;;;;;;;;;5053910;28;20040;-68
2021/01/21 03:20:19;;;;;;;0.60;0.40;;;;;;;;;;5051765;28;20021;-68
2021/01/21 03:22:45;;;;;;;0.63;0.40;;;;;;;;;;5033857;28;20033;-68
2021/01/21 03:25:12;;;;;;;0.30;0.30;;;;;;;;;;5033561;28;20032;-68
2021/01/21 03:27:38;;;;;;;0.45;0.40;;;;;;;;;;5033145;28;20022;-68
2021/01/21 03:30:04;;;;;;;0.20;0.20;;;;;;;;;;5033660;28;20474;-68
2021/01/21 03:32:30;;;;;;;0.30;0.28;;;;;;;;;;5032936;28;20026;-68
2021/01/21 03:34:57;;;;;;;0.35;0.35;;;;;;;;;;5033455;28;20034;-68
2021/01/21 03:37:23;;;;;;;0.43;0.40;;;;;;;;;;5032598;28;20033;-68
2021/01/21 03:39:49;;;;;;;0.52;0.50;;;;;;;;;;5033718;28;20024;-68
2021/01/21 03:42:15;;;;;;;0.68;0.68;;;;;;;;;;5033122;28;20113;-68
2021/01/21 03:44:41;;;;;;;0.50;0.20;;;;;;;;;;5032974;28;20029;-68
2021/01/21 03:47:07;;;;;;;0.20;0.20;;;;;;;;;;5033394;28;20036;-68
2021/01/21 03:49:33;;;;;;;0.30;0.20;;;;;;;;;;5032378;28;20507;-68
2021/01/21 03:52:00;;;;;;;0.35;0.20;;;;;;;;;;5035210;28;20037;-68
2021/01/21 03:54:26;;;;;;;0.30;0.25;;;;;;;;;;5052259;28;20083;-68
2021/01/21 03:56:52;;;;;;;0.32;0.32;;;;;;;;;;5053261;28;20035;-68
2021/01/21 03:59:18;;;;;;;0.30;0.20;;;;;;;;;;5052373;28;20044;-68
2021/01/21 04:01:45;;;;;;;0.40;0.40;;;;;;;;;;5052565;28;20620;-68
2021/01/21 04:04:11;;;;;;;0.22;0.20;;;;;;;;;;5052642;28;20027;-68
2021/01/21 04:06:37;;;;;;;0.20;0.20;;;;;;;;;;5051764;28;20037;-68
2021/01/21 04:09:03;;;;;;;0.47;0.15;;;;;;;;;;5052030;28;20041;-67
2021/01/21 04:11:29;;;;;;;0.47;0.30;;;;;;;;;;5052182;28;20029;-67
2021/01/21 04:13:55;;;;;;;0.63;0.20;;;;;;;;;;5052834;28;20424;-67
2021/01/21 04:16:22;;;;;;;0.35;0.20;;;;;;;;;;5051777;28;20029;-67
2021/01/21 04:18:48;;;;;;;0.98;0.17;;;;;;;;;;5052811;28;20029;-67
2021/01/21 04:21:14;;;;;;;0.13;0.10;;;;;;;;;;5052522;28;20039;-68
2021/01/21 04:23:40;;;;;;;0.15;0.15;;;;;;;;;;5052477;28;20029;-67
2021/01/21 04:26:06;;;;;;;0.22;0.10;;;;;;;;;;5052487;28;20029;-67
2021/01/21 04:28:32;;;;;;;0.30;0.30;;;;;;;;;;5051818;28;20071;-67
2021/01/21 04:30:58;;;;;;;0.20;0.20;;;;;;;;;;5052702;28;20491;-67
2021/01/21 04:33:24;;;;;;;0.75;0.20;;;;;;;;;;5051987;28;20447;-67
2021/01/21 04:35:51;;;;;;;0.20;0.20;;;;;;;;;;5051955;28;20028;-67
2021/01/21 04:38:17;;;;;;;0.13;0.13;;;;;;;;;;5035216;28;20037;-67
2021/01/21 04:40:43;;;;;;;0.10;0.10;;;;;;;;;;5032432;28;20066;-67
2021/01/21 04:43:09;;;;;;;0.52;0.10;;;;;;;;;;5032689;28;20021;-67
2021/01/21 04:45:36;;;;;;;0.98;0.10;;;;;;;;;;5031397;28;20091;-67
2021/01/21 04:48:02;;;;;;;0.00;0.00;;;;;;;;;;5032482;28;20029;-67
2021/01/21 04:50:28;;;;;;;0.10;0.10;;;;;;;;;;5031521;28;20550;-67
2021/01/21 04:52:56;;;;;;;0.10;0.10;;;;;;;;;;5032127;28;20029;-67
2021/01/21 04:55:22;;;;;;;0.10;0.10;;;;;;;;;;5031339;28;20033;-67
2021/01/21 04:58:04;;;;;;;0.25;0.25;;;;;;;;;;5031927;28;20140;-67
2021/01/21 05:00:30;;;;;;;0.52;0.30;;;;;;;;;;5031290;28;20387;-67
2021/01/21 05:02:58;;;;;;;0.10;0.10;;;;;;;;;;5031805;28;20184;-67
2021/01/21 05:05:24;;;;;;;0.20;0.20;;;;;;;;;;5031398;28;20034;-67
2021/01/21 05:07:50;;;;;;;0.30;0.13;;;;;;;;;;5031137;28;20454;-67
2021/01/21 05:10:17;;;;;;;0.17;0.17;;;;;;;;;;5031448;28;20117;-67
2021/01/21 05:12:43;;;;;;;0.10;0.10;;;;;;;;;;5031726;28;20031;-67
2021/01/21 05:15:09;;;;;;;0.20;0.10;;;;;;;;;;5031498;28;20029;-67
2021/01/21 05:17:35;;;;;;;0.03;0.03;;;;;;;;;;5031277;28;20128;-67
2021/01/21 05:20:02;;;;;;;0.30;0.10;;;;;;;;;;5031473;28;20033;-67
2021/01/21 05:22:28;;;;;;;0.10;0.10;;;;;;;;;;5049780;28;20425;-67
2021/01/21 05:24:55;;;;;;;0.10;0.10;;;;;;;;;;5051353;28;20020;-67
2021/01/21 05:27:21;;;;;;;0.10;0.10;;;;;;;;;;5050470;28;20021;-67
2021/01/21 05:29:48;;;;;;;0.10;0.10;;;;;;;;;;5051308;28;20032;-67
2021/01/21 05:32:14;;;;;;;0.08;0.08;;;;;;;;;;5051137;28;20511;-67
2021/01/21 05:34:41;;;;;;;0.25;0.20;;;;;;;;;;5050916;28;20085;-67
2021/01/21 05:37:11;;;;;;;0.50;0.20;;;;;;;;;;5050926;28;20456;-67
2021/01/21 05:39:41;;;;;;;0.20;0.15;;;;;;;;;;5050329;28;20037;-67
2021/01/21 05:42:07;;;;;;;0.30;0.30;;;;;;;;;;5051285;28;20446;-67
2021/01/21 05:44:34;;;;;;;0.30;0.10;;;;;;;;;;5050161;28;20608;-67
2021/01/21 05:47:03;;;;;;;0.13;0.13;;;;;;;;;;5051169;28;20025;-67
2021/01/21 05:49:29;;;;;;;0.10;0.10;;;;;;;;;;5050300;28;20566;-67
2021/01/21 05:51:56;;;;;;;0.10;0.10;;;;;;;;;;5049558;28;20025;-67
2021/01/21 05:54:23;;;;;;;0.30;0.30;;;;;;;;;;5030526;28;20115;-67
2021/01/21 05:56:50;;;;;;;0.32;0.32;;;;;;;;;;5030654;28;20025;-67
2021/01/21 05:59:17;;;;;;;0.20;0.20;;;;;;;;;;5030774;28;20055;-67
2021/01/21 06:01:43;;;;;;;0.20;0.20;;;;;;;;;;5030404;28;20041;-67
2021/01/21 06:04:10;;;;;;;0.30;0.30;;;;;;;;;;5030741;28;20120;-67
2021/01/21 06:06:40;;;;;;;0.25;0.25;;;;;;;;;;5029850;28;20747;-67
2021/01/21 06:09:07;;;;;;;0.17;0.10;;;;;;;;;;5030620;28;20040;-67
2021/01/21 06:11:34;;;;;;;0.00;0.00;;;;;;;;;;5030074;28;20044;-67
2021/01/21 06:14:00;;;;;;;0.75;0.20;;;;;;;;;;5030564;28;20071;-67
2021/01/21 06:16:27;;;;;;;0.30;0.00;;;;;;;;;;5029949;28;20033;-67
2021/01/21 06:18:53;;;;;;;0.10;0.10;;;;;;;;;;5030518;28;20018;-67
2021/01/21 06:21:24;;;;;;;0.10;0.10;;;;;;;;;;5030230;28;20030;-67
2021/01/21 06:23:52;;;;;;;0.10;0.10;;;;;;;;;;5030629;28;20029;-67
2021/01/21 06:26:19;;;;;;;0.10;0.10;;;;;;;;;;5029824;28;20033;-67
2021/01/21 06:28:47;;;;;;;0.17;0.17;;;;;;;;;;5030538;28;20033;-67
2021/01/21 06:31:15;;;;;;;0.32;0.10;;;;;;;;;;5030277;28;20044;-67
2021/01/21 06:33:41;;;;;;;0.10;0.10;;;;;;;;;;5029507;28;20021;-67
2021/01/21 06:36:08;;;;;;;0.45;0.30;;;;;;;;;;5030150;28;20168;-67
2021/01/21 06:38:38;;;;;;;0.17;0.10;;;;;;;;;;5048336;28;20056;-67
2021/01/21 06:41:06;;;;;;;0.10;0.08;;;;;;;;;;5050482;28;20017;-67
2021/01/21 06:43:36;;;;;;;0.13;0.13;;;;;;;;;;5049601;28;21240;-67
2021/01/21 06:46:02;;;;;;;0.10;0.10;;;;;;;;;;5046860;28;20030;-67
2021/01/21 06:48:29;;;;;;;1.65;0.60;;;;;;;;;;5039414;28;20437;-67
2021/01/21 06:50:55;;;;;;;1.55;1.05;;;;;;;;;;5029194;28;20540;-67
2021/01/21 06:53:22;;;;;;;0.40;0.38;;;;;;;;;;5045043;28;20029;-67
2021/01/21 06:55:49;;;;;;;1.63;0.40;;;;;;;;;;5049216;28;20083;-67
2021/01/21 06:58:35;;;;;;;0.47;0.40;;;;;;;;;;5044425;28;20112;-68
2021/01/21 07:01:01;;;;;;;1.75;0.30;;;;;;;;;;5066432;28;20044;-67
2021/01/21 07:03:31;;;;;;;2.13;0.60;;;;;;;;;;5059087;28;20035;-67
2021/01/21 07:06:02;;;;;;;1.05;0.63;;;;;;;;;;5046385;28;20112;-67
2021/01/21 07:08:28;;;;;;;1.77;1.30;;;;;;;;;;5055337;28;20025;-67
2021/01/21 07:10:59;;;;;;;0.47;0.47;;;;;;;;;;5049123;28;20467;-67
2021/01/21 07:13:26;;;;;;;1.00;0.30;;;;;;;;;;5047041;28;20420;-67
2021/01/21 07:16:03;;;;;;;0.60;0.40;;;;;;;;;;5049144;28;20028;-66
2021/01/21 07:18:31;;;;;;;2.55;1.02;;;;;;;;;;5048901;28;20021;-67
2021/01/21 07:21:00;;;;;;;2.17;0.50;;;;;;;;;;5054211;28;20039;-66
2021/01/21 07:23:45;;;;;;;0.75;0.32;;;;;;;;;;5034546;28;20036;-67
2021/01/21 07:26:21;;;;;;;1.92;0.60;;;;;;;;;;5048937;28;20052;-67
2021/01/21 07:29:10;;;;;;;1.65;0.45;;;;;;;;;;5039119;28;20544;-67
2021/01/21 07:31:59;;;;;;;1.95;0.47;;;;;;;;;;5033459;28;20045;-69
2021/01/21 07:34:29;;;;;;;0.80;0.75;;;;;;;;;;5040077;28;20071;-69
2021/01/21 07:37:07;;;;;;;2.75;1.23;;;;;;;;;;5041529;28;20793;-69
2021/01/21 07:39:53;;;;;;;3.13;0.75;;;;;;;;;;5043558;28;20112;-67
2021/01/21 07:42:19;;;;;;;2.40;0.70;;;;;;;;;;5043361;28;20032;-69
2021/01/21 07:44:59;;;;;;;3.90;0.85;;;;;;;;;;5042082;28;20028;-67
2021/01/21 07:47:25;;;;;;;1.48;0.73;;;;;;;;;;5053061;28;20033;-67
2021/01/21 07:49:51;;;;;;;13.30;5.30;;;;;;;;;;5049868;28;20037;-69
2021/01/21 07:52:17;;;;;;;28.65;12.45;;;;;;;;;;5045093;28;20033;-69
2021/01/21 07:54:51;;;;;;;19.60;7.25;;;;;;;;;;5048349;28;20036;-69
2021/01/21 07:57:22;;;;;;;12.25;5.35;;;;;;;;;;5048041;28;20049;-67
2021/01/21 08:00:00;;;;;;;11.75;4.88;;;;;;;;;;5055003;28;20040;-67
2021/01/21 08:02:42;;;;;;;9.23;4.32;;;;;;;;;;5045044;28;20083;-67
2021/01/21 08:05:09;;;;;;;22.55;3.72;;;;;;;;;;5050136;28;20029;-67
2021/01/21 08:07:48;;;;;;;10.00;3.15;;;;;;;;;;5044025;28;21172;-67
2021/01/21 08:10:20;;;;;;;5.38;3.13;;;;;;;;;;5053262;28;20086;-68
2021/01/21 08:12:57;;;;;;;5.00;2.05;;;;;;;;;;5052139;28;20527;-69
2021/01/21 08:15:24;;;;;;;5.68;3.15;;;;;;;;;;5048431;28;20447;-67
2021/01/21 08:17:51;;;;;;;12.07;2.63;;;;;;;;;;5045305;28;20070;-67
2021/01/21 08:20:17;;;;;;;12.70;2.72;;;;;;;;;;5053819;28;20476;-67
2021/01/21 08:22:56;;;;;;;6.72;2.00;;;;;;;;;;5048316;28;20384;-68
2021/01/21 08:25:25;;;;;;;6.15;2.00;;;;;;;;;;5040524;28;20029;-66
2021/01/21 08:27:52;;;;;;;5.28;2.47;;;;;;;;;;5047322;28;20077;-68
2021/01/21 08:30:19;;;;;;;6.90;2.00;;;;;;;;;;5049957;28;20106;-68
2021/01/21 08:32:47;;;;;;;2.60;1.63;;;;;;;;;;5050330;28;20477;-67
2021/01/21 08:35:18;;;;;;;3.20;1.48;;;;;;;;;;5048499;28;20043;-66
2021/01/21 08:37:45;;;;;;;3.63;2.75;;;;;;;;;;5046297;28;20025;-66
2021/01/21 08:40:11;;;;;;;6.03;2.42;;;;;;;;;;5050490;28;20063;-67
2021/01/21 08:42:39;;;;;;;4.53;1.42;;;;;;;;;;5051403;28;20025;-66
2021/01/21 08:45:05;;;;;;;3.38;1.60;;;;;;;;;;5049674;28;20064;-66
2021/01/21 08:47:48;;;;;;;2.08;1.77;;;;;;;;;;5048627;28;20028;-66
2021/01/21 08:50:15;;;;;;;1.73;1.42;;;;;;;;;;5046088;28;20041;-68
2021/01/21 08:53:00;;;;;;;2.75;1.65;;;;;;;;;;5048676;28;20032;-66
2021/01/21 08:55:45;;;;;;;3.28;1.77;;;;;;;;;;5045060;28;20134;-66
2021/01/21 08:58:16;;;;;;;2.95;2.08;;;;;;;;;;5047113;28;20025;-67
2021/01/21 09:01:11;;;;;;;5.82;1.75;;;;;;;;;;5045121;28;20060;-65
2021/01/21 09:03:45;;;;;;;1.65;1.55;;;;;;;;;;5023407;28;21027;-66
2021/01/21 09:06:12;;;;;;;2.55;1.38;;;;;;;;;;5047831;28;20172;-66
2021/01/21 09:08:50;;;;;;;2.00;1.48;;;;;;;;;;5043766;28;20041;-66
2021/01/21 09:11:32;;;;;;;4.25;1.83;;;;;;;;;;5047777;28;20029;-66
2021/01/21 09:13:59;;;;;;;24.05;2.28;;;;;;;;;;5045734;28;20093;-67
2021/01/21 09:16:41;;;;;;;1.83;1.33;;;;;;;;;;5043077;28;20024;-66
2021/01/21 09:19:09;;;;;;;3.28;1.75;;;;;;;;;;5045012;28;20044;-66
2021/01/21 09:21:35;;;;;;;4.97;1.45;;;;;;;;;;5040867;28;20057;-66
2021/01/21 09:24:19;;;;;;;2.08;1.58;;;;;;;;;;5050086;28;20098;-66
2021/01/21 09:27:05;;;;;;;3.53;1.38;;;;;;;;;;5045496;28;20055;-68
2021/01/21 09:29:50;;;;;;;5.70;1.40;;;;;;;;;;5044606;28;20573;-66
2021/01/21 09:32:17;;;;;;;2.15;1.45;;;;;;;;;;5047196;28;20036;-67
2021/01/21 09:34:56;;;;;;;3.30;1.80;;;;;;;;;;5044543;28;20033;-66
2021/01/21 09:37:23;;;;;;;7.20;1.65;;;;;;;;;;5042902;28;20462;-66
2021/01/21 09:39:50;;;;;;;4.30;2.00;;;;;;;;;;5045225;28;20021;-66
2021/01/21 09:42:16;;;;;;;3.28;1.63;;;;;;;;;;5044742;28;20425;-68
2021/01/21 09:44:43;;;;;;;3.38;1.85;;;;;;;;;;5041057;28;20044;-67
2021/01/21 09:47:09;;;;;;;2.63;1.92;;;;;;;;;;5044161;28;20052;-67
2021/01/21 09:49:35;;;;;;;7.30;2.53;;;;;;;;;;5049762;28;20156;-66
2021/01/21 09:52:01;;;;;;;5.68;2.22;;;;;;;;;;5046749;28;20029;-66
2021/01/21 09:54:28;;;;;;;3.80;2.00;;;;;;;;;;5051070;28;20048;-66
2021/01/21 09:56:54;;;;;;;4.32;2.53;;;;;;;;;;5046452;28;20090;-66
2021/01/21 09:59:21;;;;;;;4.90;3.17;;;;;;;;;;5048509;28;20033;-66
2021/01/21 10:01:48;;;;;;;4.43;2.50;;;;;;;;;;5047042;28;20048;-68
2021/01/21 10:04:14;;;;;;;6.88;1.90;;;;;;;;;;5042454;28;20564;-67
2021/01/21 10:06:41;;;;;;;3.30;2.03;;;;;;;;;;5044199;28;20435;-66
2021/01/21 10:09:07;;;;;;;3.83;2.80;;;;;;;;;;5042881;28;20121;-67
2021/01/21 10:11:33;;;;;;;4.25;2.67;;;;;;;;;;5045110;28;20051;-68
2021/01/21 10:13:59;;;;;;;4.88;2.92;;;;;;;;;;5041017;28;20472;-65
2021/01/21 10:16:25;;;;;;;5.47;3.53;;;;;;;;;;5040905;28;21336;-68
2021/01/21 10:18:51;;;;;;;5.75;2.92;;;;;;;;;;5043081;28;20032;-65
2021/01/21 10:21:17;;;;;;;4.22;2.45;;;;;;;;;;5040813;28;20044;-66
2021/01/21 10:23:43;;;;;;;3.50;3.13;;;;;;;;;;5040628;28;20230;-66
2021/01/21 10:26:09;;;;;;;3.45;2.33;;;;;;;;;;5044277;28;20029;-66
2021/01/21 10:28:35;;;;;;;4.68;2.45;;;;;;;;;;5041741;28;20036;-66
2021/01/21 10:31:01;;;;;;;3.38;2.60;;;;;;;;;;5042003;28;20047;-66
2021/01/21 10:33:28;;;;;;;4.07;2.40;;;;;;;;;;5046587;28;21671;-66
2021/01/21 10:35:54;;;;;;;5.60;2.90;;;;;;;;;;5045907;28;20098;-66
2021/01/21 10:38:21;;;;;;;3.60;2.63;;;;;;;;;;5042847;28;20032;-66
2021/01/21 10:40:47;;;;;;;5.18;3.75;;;;;;;;;;5046904;28;20077;-66
2021/01/21 10:43:13;;;;;;;7.75;3.13;;;;;;;;;;5046097;28;20031;-66
2021/01/21 10:45:39;;;;;;;4.22;3.83;;;;;;;;;;5048199;28;20454;-66
2021/01/21 10:48:05;;;;;;;5.88;2.75;;;;;;;;;;5045257;28;20036;-66
2021/01/21 10:50:31;;;;;;;6.10;2.85;;;;;;;;;;5049476;28;20106;-66
2021/01/21 10:52:57;;;;;;;3.38;3.08;;;;;;;;;;5052530;28;20029;-66
2021/01/21 10:55:23;;;;;;;6.88;3.53;;;;;;;;;;5049569;28;20044;-66
2021/01/21 10:57:51;;;;;;;3.35;2.70;;;;;;;;;;5039448;28;20037;-66
2021/01/21 11:00:17;;;;;;;5.95;3.53;;;;;;;;;;5050026;28;20108;-66
2021/01/21 11:02:43;;;;;;;3.75;2.53;;;;;;;;;;5046303;28;20052;-66
2021/01/21 11:05:10;;;;;;;7.35;4.00;;;;;;;;;;5045311;28;20021;-65
2021/01/21 11:07:36;;;;;;;5.15;2.67;;;;;;;;;;5046682;28;20025;-66
2021/01/21 11:10:02;;;;;;;4.22;3.50;;;;;;;;;;5049964;28;20062;-66
2021/01/21 11:12:28;;;;;;;10.40;2.95;;;;;;;;;;5046533;28;20020;-66
2021/01/21 11:14:54;;;;;;;4.90;2.83;;;;;;;;;;5048441;28;20063;-66
2021/01/21 11:17:21;;;;;;;4.50;3.33;;;;;;;;;;5047772;28;20539;-67
2021/01/21 11:19:49;;;;;;;3.17;2.13;;;;;;;;;;5047011;28;20028;-67
2021/01/21 11:22:15;;;;;;;7.18;2.95;;;;;;;;;;5046466;28;20631;-66
2021/01/21 11:24:42;;;;;;;2.47;2.28;;;;;;;;;;5049033;28;20712;-66
2021/01/21 11:27:08;;;;;;;2.83;1.83;;;;;;;;;;5047068;28;20700;-69
2021/01/21 11:29:34;;;;;;;4.30;2.05;;;;;;;;;;5050675;28;20431;-72
2021/01/21 11:32:00;;;;;;;5.32;2.33;;;;;;;;;;5054443;28;20052;-79
2021/01/21 11:34:26;;;;;;;3.88;1.17;;;;;;;;;;5046344;28;20371;-66
2021/01/21 11:36:53;;;;;;;1.73;0.95;;;;;;;;;;5050661;28;20123;-66
2021/01/21 11:39:19;;;;;;;2.25;1.20;;;;;;;;;;5049738;28;20021;-66
2021/01/21 11:41:45;;;;;;;3.60;1.88;;;;;;;;;;5048166;28;20029;-66
2021/01/21 11:44:11;;;;;;;3.35;2.08;;;;;;;;;;5052160;28;20029;-66
2021/01/21 11:46:37;;;;;;;1.58;1.48;;;;;;;;;;5049086;28;20560;-66
2021/01/21 11:49:03;;;;;;;3.15;1.48;;;;;;;;;;5049085;28;20376;-66
2021/01/21 11:51:29;;;;;;;1.75;1.25;;;;;;;;;;5030275;28;20029;-67
2021/01/21 11:53:55;;;;;;;1.40;1.10;;;;;;;;;;5049567;28;20040;-66
2021/01/21 11:56:21;;;;;;;2.60;0.60;;;;;;;;;;5048359;28;20032;-66
2021/01/21 11:58:48;;;;;;;0.80;0.60;;;;;;;;;;5047928;28;20028;-67
2021/01/21 12:01:14;;;;;;;1.00;0.70;;;;;;;;;;5046042;28;20145;-67
2021/01/21 12:03:40;;;;;;;1.80;0.90;;;;;;;;;;5048447;28;20403;-66
2021/01/21 12:06:06;;;;;;;0.70;0.68;;;;;;;;;;5049077;28;20029;-67
2021/01/21 12:08:32;;;;;;;2.47;0.70;;;;;;;;;;5056286;28;20094;-67
2021/01/21 12:10:58;;;;;;;1.05;0.68;;;;;;;;;;5051000;28;20037;-66
2021/01/21 12:13:24;;;;;;;0.98;0.88;;;;;;;;;;5047232;28;20455;-66
2021/01/21 12:15:50;;;;;;;1.00;0.70;;;;;;;;;;5051856;28;20025;-67
2021/01/21 12:18:16;;;;;;;0.70;0.70;;;;;;;;;;5048465;28;20083;-67
2021/01/21 12:20:42;;;;;;;0.88;0.52;;;;;;;;;;5046250;28;20116;-67
2021/01/21 12:23:09;;;;;;;0.82;0.77;;;;;;;;;;5047684;28;20078;-66
2021/01/21 12:25:35;;;;;;;3.65;0.82;;;;;;;;;;5049695;28;20040;-66
2021/01/21 12:28:01;;;;;;;0.60;0.60;;;;;;;;;;5048184;28;20040;-66
2021/01/21 12:30:27;;;;;;;0.95;0.75;;;;;;;;;;5046644;28;20106;-66
2021/01/21 12:32:53;;;;;;;1.33;1.25;;;;;;;;;;5048144;28;20064;-66
2021/01/21 12:35:19;;;;;;;2.53;0.70;;;;;;;;;;5043591;28;20037;-67
2021/01/21 12:37:45;;;;;;;1.35;0.40;;;;;;;;;;5048103;28;20055;-66
2021/01/21 12:40:12;;;;;;;0.95;0.95;;;;;;;;;;5047935;28;20062;-66
2021/01/21 12:42:38;;;;;;;2.70;0.70;;;;;;;;;;5047605;28;20059;-66
2021/01/21 12:45:05;;;;;;;4.68;1.17;;;;;;;;;;5051632;28;20052;-66
2021/01/21 12:47:31;;;;;;;1.50;0.93;;;;;;;;;;5045823;28;20197;-66
2021/01/21 12:49:57;;;;;;;0.20;0.20;;;;;;;;;;5051456;28;20124;-66
2021/01/21 12:52:23;;;;;;;0.40;0.40;;;;;;;;;;5048988;28;20115;-66
2021/01/21 12:54:49;;;;;;;0.17;0.10;;;;;;;;;;5049394;28;20107;-66
2021/01/21 12:57:17;;;;;;;0.30;0.10;;;;;;;;;;5045749;28;20020;-68
2021/01/21 12:59:44;;;;;;;0.35;0.30;;;;;;;;;;5047533;28;20042;-66
2021/01/21 13:02:10;;;;;;;8.30;1.17;;;;;;;;;;5029854;28;20052;-66
2021/01/21 13:04:37;;;;;;;3.70;0.38;;;;;;;;;;5028037;28;20037;-66
2021/01/21 13:07:04;;;;;;;0.90;0.50;;;;;;;;;;5027318;28;20540;-66
2021/01/21 13:09:30;;;;;;;4.00;0.63;;;;;;;;;;5030667;28;20041;-66
2021/01/21 13:11:56;;;;;;;2.42;0.57;;;;;;;;;;5032027;28;20033;-66
2021/01/21 13:14:22;;;;;;;0.30;0.30;;;;;;;;;;5031216;28;20068;-66
2021/01/21 13:16:48;;;;;;;0.57;0.40;;;;;;;;;;5022880;28;20109;-66
2021/01/21 13:19:14;;;;;;;0.70;0.70;;;;;;;;;;5025998;28;20033;-66
2021/01/21 13:21:42;;;;;;;1.58;0.73;;;;;;;;;;5033089;28;20091;-67
2021/01/21 13:24:08;;;;;;;4.05;0.50;;;;;;;;;;5036329;28;20468;-67
2021/01/21 13:26:34;;;;;;;0.60;0.50;;;;;;;;;;5027969;28;20475;-67
2021/01/21 13:29:01;;;;;;;0.70;0.30;;;;;;;;;;5026206;28;20055;-67
2021/01/21 13:31:27;;;;;;;1.80;0.68;;;;;;;;;;5026067;28;20496;-66
2021/01/21 13:33:53;;;;;;;1.45;0.40;;;;;;;;;;5030657;28;20025;-66
2021/01/21 13:36:19;;;;;;;1.73;0.50;;;;;;;;;;5029253;28;20029;-66
2021/01/21 13:38:45;;;;;;;4.28;0.40;;;;;;;;;;5033126;28;20364;-66
2021/01/21 13:41:11;;;;;;;0.35;0.30;;;;;;;;;;5037735;28;20064;-66
2021/01/21 13:43:37;;;;;;;0.52;0.35;;;;;;;;;;5024503;28;20716;-68
2021/01/21 13:46:04;;;;;;;3.88;0.40;;;;;;;;;;5031156;28;20049;-65
2021/01/21 13:48:30;;;;;;;1.83;0.35;;;;;;;;;;5024936;28;20026;-66
2021/01/21 13:50:56;;;;;;;1.25;0.60;;;;;;;;;;5030570;28;20642;-67
2021/01/21 13:53:23;;;;;;;0.77;0.28;;;;;;;;;;5026623;28;20042;-66
2021/01/21 13:55:49;;;;;;;1.92;0.25;;;;;;;;;;5034174;28;20029;-66
2021/01/21 13:58:15;;;;;;;1.05;0.22;;;;;;;;;;5033289;28;20124;-66
2021/01/21 14:00:41;;;;;;;1.67;0.30;;;;;;;;;;5027107;28;20032;-67
2021/01/21 14:03:07;;;;;;;0.77;0.63;;;;;;;;;;5048295;28;20055;-66
2021/01/21 14:05:34;;;;;;;0.47;0.35;;;;;;;;;;5039956;28;20108;-66
2021/01/21 14:08:00;;;;;;;0.25;0.10;;;;;;;;;;5045428;28;20032;-74
2021/01/21 14:10:26;;;;;;;1.55;0.82;;;;;;;;;;5044323;28;20127;-66
2021/01/21 14:12:52;;;;;;;0.98;0.50;;;;;;;;;;5047896;28;20029;-66
2021/01/21 14:15:19;;;;;;;0.52;0.25;;;;;;;;;;5046203;28;20021;-66
2021/01/21 14:17:45;;;;;;;1.60;0.30;;;;;;;;;;5049893;28;20032;-66
2021/01/21 14:20:11;;;;;;;1.48;0.13;;;;;;;;;;5046193;28;20078;-66
2021/01/21 14:22:37;;;;;;;1.38;0.17;;;;;;;;;;5046503;28;20033;-67
2021/01/21 14:25:07;;;;;;;2.22;0.20;;;;;;;;;;5047966;28;20044;-67
2021/01/21 14:27:33;;;;;;;0.10;0.10;;;;;;;;;;5045958;28;20024;-66
2021/01/21 14:30:00;;;;;;;0.80;0.40;;;;;;;;;;5047541;28;20076;-66
2021/01/21 14:32:26;;;;;;;0.80;0.32;;;;;;;;;;5043063;28;20545;-67
2021/01/21 14:34:52;;;;;;;4.30;1.45;;;;;;;;;;5047021;28;20040;-67
2021/01/21 14:37:18;;;;;;;2.38;1.00;;;;;;;;;;5045627;28;20044;-66
2021/01/21 14:39:44;;;;;;;2.17;1.70;;;;;;;;;;5047048;28;20025;-66
2021/01/21 14:42:10;;;;;;;2.15;1.15;;;;;;;;;;5046292;28;20033;-66
2021/01/21 14:44:39;;;;;;;2.97;1.42;;;;;;;;;;5044784;28;20425;-67
2021/01/21 14:47:05;;;;;;;2.17;1.13;;;;;;;;;;5052079;28;20033;-67